Pagina principale
METAR-TAF:

METAR-TAF

Aeroporti :

Aeroporto di Maribor-Orehova Vas

Maribor, Slovenia

latitudine: 46-29N, longitudine: 015-41E, altezza: 264 m

Osservazione

Il bollettino è stato emesso 39 minuti fa, alle 14:00 UTC
Vento 7 kt da nord
Temperature 20°C
Umidità 64%
Pressione 1014 hPa
Visibilità 10 km o più
Poco nuvoloso ad un'altezza di 3700 ft
Nubi sparse ad un'altezza di 5600 ft
Nuvoloso ad un'altezza di 9000 ft

METAR: LJMB 131400Z 35007KT 9999 FEW037 SCT056 BKN090 20/13 Q1014

Ora: 16:39 (14:39 UTC)

Previsione

Il bollettino è stato emesso 3 ore e 39 minuti fa, alle 11:00 UTC
Previsione valida dal 13 alle 12 UTC al 14 alle 12 UTC
Vento 5 kt da nord
Visibilità 10 km o più
Nubi sparse ad un'altezza di 5000 ft
Temporaneamente
dal 13 alle 12 UTC al 13 alle 16 UTC
pioggia

TAF: LJMB 131100Z 1312/1412 36005KT 9999 SCT050 TEMPO 1312/1316 RA

Osservazioni e previsioni meteorologiche di più di 4000 aeroporti (messaggi METAR e TAF).

Le stazioni disponibili sono rappresentate dai dischi gialli e rossi sulla carta.

Puntare il mouse per vedere il nome della stazione.

Clicca sopra per visualizzare le osservazioni e previsioni meteorologiche.

Per cambiare la mappa : fare clic sui pulsanti verdi con una croce nera per ingrandire, il pulsante verde con un trattino per diminuire, o sulla freccia verde per le mappe adiacenti.


METAR-TAF: